CheckWX is a tool to help pilots better visualize weather data.  It is not intended as a substitute for an official pre-flight weather briefing.

06:02:10 UTC

FYWB TAF
Walvis Bay Airport
Walvis Bay, Namibia
TAF FYWB 031000Z 0312/0412 01005KT CAVOK BECMG 0318/0320 20008KT 9999 BKN015 TEMPO 0322/0404 05005KT 0700 FG OVC008 BECMG 0409/0411 29003KT 9999 BKN014

Apr-3@
12:00 UTC

Apr-3 @ 12:00 UTC

Apr-3@
18:00 UTC

Apr-3 @ 18:00 UTC

TAF FYWB 031000Z 0312/0412 01005KT CAVOK

Expired

Wind
  • 010° at 5 KTS
Conditions
No significant weather
Cloud Levels
  • No significant clouds

Apr-3@
18:00 UTC

Apr-3 @ 18:00 UTC

Apr-4@
09:00 UTC

Apr-4 @ 09:00 UTC

BECMG 0318/0320 20008KT 9999 BKN015

Becoming

Becoming Conditions expected by Fri, Apr 3, 2020 @ 20:00 UTC

Wind
  • 200° at 8 KTS
Conditions
No significant weather
Cloud Levels
  • Broken at 1,500' AGL

Apr-3@
22:00 UTC

Apr-3 @ 22:00 UTC

Apr-4@
04:00 UTC

Apr-4 @ 04:00 UTC

TEMPO 0322/0404 05005KT 0700 FG OVC008

Expired

Wind
  • 050° at 5 KTS
Conditions
Fog
Cloud Levels
  • Overcast at 800' AGL

Apr-4@
09:00 UTC

Apr-4 @ 09:00 UTC

Apr-4@
12:00 UTC

Apr-4 @ 12:00 UTC

BECMG 0409/0411 29003KT 9999 BKN014

Becoming

Becoming Conditions expected by Sat, Apr 4, 2020 @ 11:00 UTC

Wind
  • 290° at 3 KTS
Conditions
No significant weather
Cloud Levels
  • Broken at 1,400' AGL